Terminal Aerodrome Forecast
Issued by NWS

Home | Current Version | Previous Version | Text Only | Print | Product List | Glossary Off
Versions: 1 2 3 4 5 6 7 8 9 10 11 12 13 14 15 16 17 18 19 20 21 22 23 24 25 26 27

000
FTUS43 KTOP 281730
TAFFOE
TAF
KFOE 281730Z 2818/2918 19011G20KT P6SM SCT080 OVC100
     FM282100 19009KT P6SM VCTS BKN050CB
     FM290300 VRB05KT P6SM BKN120
     FM291000 32005KT 5SM BR BKN015=

USA.gov is the U.S. government's official web portal to all federal, state and local government web resources and services.